Messwerte Marathon

Temperatur

Temperatur
°C
1593810000 17.00 17.00 33
1593813600 18.00 18.00 33
1593817200 19.00 19.00 32
1593820800 20.00 20.00 31
1593824400 21.00 21.00 30
1593828000 22.00 22.00 30
1593831600 23.00 23.00 29
1593835200 0.00 0.00 29
1593838800 1.00 1.00 29
1593842400 2.00 2.00 29
1593846000 3.00 3.00 29
1593849600 4.00 4.00 29
1593853200 5.00 5.00
1593856800 6.00 6.00 29
1593860400 7.00 7.00 29
1593864000 8.00 8.00 31
1593867600 9.00 9.00 31
1593871200 10.00 10.00 32
1593874800 11.00 11.00 33
1593878400 12.00 12.00
1593882000 13.00 13.00 32
1593885600 14.00 14.00 31
1593889200 15.00 15.00 33
1593892800 16.00 16.00 33

Aktuellste Messwerte

Wettercharakter
Wetter: sonnig
Temperatur
33 °C
Feuchtigkeit
60 %
Wind
10 km/hWindrichtung: Süd
Luftdruck
1013 hPa
Messzeit: 4. Juli 2020, 18.00Datenquelle: METAR

Weitere Messstationen in der Nähe

Messstation Temperatur Entfernung
Key West 33 °C 67 km
Key West 32 °C 73 km
Miami 32 °C 103 km
Homestead 31 °C 108 km
Miami 33 °C 132 km
Miami 31 °C 151 km
Naples 32 °C 174 km

Wind

Windrichtung Böen Mittelwind
° km/h km/h
1593810000 17.00 16.00 - 17.00 190° 10
1593813600 18.00 17.00 - 18.00 210° 10
1593817200 19.00 18.00 - 19.00 5
1593820800 20.00 19.00 - 20.00 210° 5
1593824400 21.00 20.00 - 21.00 0
1593828000 22.00 21.00 - 22.00 0
1593831600 23.00 22.00 - 23.00 190° 5
1593835200 0.00 23.00 - 0.00 0
1593838800 1.00 0.00 - 1.00 5
1593842400 2.00 1.00 - 2.00 170° 10
1593846000 3.00 2.00 - 3.00 200° 10
1593849600 4.00 3.00 - 4.00 220° 5
1593853200 5.00 4.00 - 5.00
1593856800 6.00 5.00 - 6.00 270° 5
1593860400 7.00 6.00 - 7.00 0
1593864000 8.00 7.00 - 8.00 0
1593867600 9.00 8.00 - 9.00 180° 5
1593871200 10.00 9.00 - 10.00 240° 5
1593874800 11.00 10.00 - 11.00 180° 10
1593878400 12.00 11.00 - 12.00
1593882000 13.00 12.00 - 13.00 10
1593885600 14.00 13.00 - 14.00 30° 10
1593889200 15.00 14.00 - 15.00 5
1593892800 16.00 15.00 - 16.00 170° 10

Ihre Wetterstation

Fehlt Ihre Wetterstation auf unserem Portal?

Schreiben Sie an network@meteonews.ch

Klima

Wann ist es am wärmsten? Wann regnet es am wenigsten? Unsere Klimadaten geben Auskunft.